sensor_id;sensor_type;location;lat;lon;timestamp;pressure;altitude;pressure_sealevel;temperature;humidity
51359;BME280;37448;51.588;7.248;2023-05-22T00:00:15;100787.06;;;17.27;87.60
51359;BME280;37448;51.588;7.248;2023-05-22T00:02:15;100782.72;;;17.26;87.84
51359;BME280;37448;51.588;7.248;2023-05-22T00:04:16;100775.84;;;17.21;87.40
51359;BME280;37448;51.588;7.248;2023-05-22T00:06:20;100777.56;;;17.22;87.91
51359;BME280;37448;51.588;7.248;2023-05-22T00:08:21;100780.34;;;17.19;87.64
51359;BME280;37448;51.588;7.248;2023-05-22T00:10:22;100783.13;;;17.16;87.70
51359;BME280;37448;51.588;7.248;2023-05-22T00:12:22;100778.94;;;17.12;87.24
51359;BME280;37448;51.588;7.248;2023-05-22T00:14:22;100777.22;;;17.11;87.75
51359;BME280;37448;51.588;7.248;2023-05-22T00:16:23;100776.50;;;17.07;87.36
51359;BME280;37448;51.588;7.248;2023-05-22T00:18:23;100775.66;;;17.07;88.08
51359;BME280;37448;51.588;7.248;2023-05-22T00:20:26;100773.94;;;17.06;88.18
51359;BME280;37448;51.588;7.248;2023-05-22T00:22:26;100773.31;;;17.01;87.43
51359;BME280;37448;51.588;7.248;2023-05-22T00:24:27;100770.69;;;17.01;88.28
51359;BME280;37448;51.588;7.248;2023-05-22T00:26:27;100764.59;;;16.99;88.23
51359;BME280;37448;51.588;7.248;2023-05-22T00:28:28;100769.91;;;16.97;88.05
51359;BME280;37448;51.588;7.248;2023-05-22T00:30:29;100761.94;;;16.99;88.45
51359;BME280;37448;51.588;7.248;2023-05-22T00:32:29;100757.66;;;16.96;87.89
51359;BME280;37448;51.588;7.248;2023-05-22T00:34:30;100755.84;;;16.98;88.86
51359;BME280;37448;51.588;7.248;2023-05-22T00:36:30;100756.78;;;16.96;88.53
51359;BME280;37448;51.588;7.248;2023-05-22T00:38:33;100758.50;;;16.97;88.70
51359;BME280;37448;51.588;7.248;2023-05-22T00:40:34;100759.31;;;16.99;89.25
51359;BME280;37448;51.588;7.248;2023-05-22T00:42:34;100756.66;;;16.99;89.36
51359;BME280;37448;51.588;7.248;2023-05-22T00:44:34;100759.25;;;17.00;89.23
51359;BME280;37448;51.588;7.248;2023-05-22T00:46:35;100753.09;;;17.00;89.34
51359;BME280;37448;51.588;7.248;2023-05-22T00:48:36;100752.22;;;17.01;89.61
51359;BME280;37448;51.588;7.248;2023-05-22T00:50:36;100754.94;;;16.98;88.85
51359;BME280;37448;51.588;7.248;2023-05-22T00:52:40;100750.56;;;16.98;89.30
51359;BME280;37448;51.588;7.248;2023-05-22T00:54:42;100758.38;;;17.00;90.06
51359;BME280;37448;51.588;7.248;2023-05-22T00:56:42;100753.97;;;17.00;89.83
51359;BME280;37448;51.588;7.248;2023-05-22T00:58:43;100752.22;;;17.01;90.08
51359;BME280;37448;51.588;7.248;2023-05-22T01:00:44;100750.34;;;17.03;90.19
51359;BME280;37448;51.588;7.248;2023-05-22T01:02:45;100744.28;;;17.01;90.01
51359;BME280;37448;51.588;7.248;2023-05-22T01:04:46;100749.56;;;17.01;89.99
51359;BME280;37448;51.588;7.248;2023-05-22T01:06:47;100750.47;;;17.00;89.83
51359;BME280;37448;51.588;7.248;2023-05-22T01:08:49;100751.28;;;17.02;90.35
51359;BME280;37448;51.588;7.248;2023-05-22T01:10:54;100742.56;;;17.00;90.24
51359;BME280;37448;51.588;7.248;2023-05-22T01:15:23;100740.13;;;16.95;90.05
51359;BME280;37448;51.588;7.248;2023-05-22T01:17:36;100736.97;;;16.87;88.72
51359;BME280;37448;51.588;7.248;2023-05-22T01:20:00;100734.28;;;16.88;89.80
51359;BME280;37448;51.588;7.248;2023-05-22T01:22:20;100745.13;;;16.82;89.36
51359;BME280;37448;51.588;7.248;2023-05-22T01:24:52;100738.13;;;16.81;89.69
51359;BME280;37448;51.588;7.248;2023-05-22T01:27:16;100741.69;;;16.80;89.97
51359;BME280;37448;51.588;7.248;2023-05-22T01:29:38;100746.28;;;16.75;89.79
51359;BME280;37448;51.588;7.248;2023-05-22T01:31:42;100742.97;;;16.71;89.41
51359;BME280;37448;51.588;7.248;2023-05-22T01:33:50;100738.69;;;16.69;88.74
51359;BME280;37448;51.588;7.248;2023-05-22T01:35:53;100744.09;;;16.65;88.65
51359;BME280;37448;51.588;7.248;2023-05-22T01:37:57;100741.66;;;16.61;88.77
51359;BME280;37448;51.588;7.248;2023-05-22T01:39:57;100747.94;;;16.58;88.59
51359;BME280;37448;51.588;7.248;2023-05-22T01:41:58;100746.22;;;16.57;89.02
51359;BME280;37448;51.588;7.248;2023-05-22T01:44:00;100741.94;;;16.55;88.18
51359;BME280;37448;51.588;7.248;2023-05-22T01:46:03;100743.78;;;16.53;88.29
51359;BME280;37448;51.588;7.248;2023-05-22T01:48:04;100744.78;;;16.50;88.18
51359;BME280;37448;51.588;7.248;2023-05-22T01:50:05;100742.22;;;16.48;88.01
51359;BME280;37448;51.588;7.248;2023-05-22T01:52:20;100741.50;;;16.45;88.29
51359;BME280;37448;51.588;7.248;2023-05-22T01:54:31;100737.09;;;16.45;88.71
51359;BME280;37448;51.588;7.248;2023-05-22T01:57:04;100737.94;;;16.46;88.95
51359;BME280;37448;51.588;7.248;2023-05-22T01:59:15;100742.28;;;16.47;88.86
51359;BME280;37448;51.588;7.248;2023-05-22T02:01:20;100744.91;;;16.47;88.50
51359;BME280;37448;51.588;7.248;2023-05-22T02:03:29;100745.06;;;16.44;88.13
51359;BME280;37448;51.588;7.248;2023-05-22T02:05:32;100745.84;;;16.46;88.46
51359;BME280;37448;51.588;7.248;2023-05-22T02:07:37;100737.78;;;16.49;88.92
51359;BME280;37448;51.588;7.248;2023-05-22T02:09:39;100739.44;;;16.52;89.15
51359;BME280;37448;51.588;7.248;2023-05-22T02:11:40;100741.22;;;16.51;89.12
51359;BME280;37448;51.588;7.248;2023-05-22T02:13:41;100745.59;;;16.52;88.98
51359;BME280;37448;51.588;7.248;2023-05-22T02:15:45;100746.44;;;16.53;89.08
51359;BME280;37448;51.588;7.248;2023-05-22T02:17:46;100749.94;;;16.53;88.90
51359;BME280;37448;51.588;7.248;2023-05-22T02:19:48;100745.50;;;16.54;88.79
51359;BME280;37448;51.588;7.248;2023-05-22T02:21:49;100749.13;;;16.51;88.50
51359;BME280;37448;51.588;7.248;2023-05-22T02:23:49;100752.19;;;16.42;86.50
51359;BME280;37448;51.588;7.248;2023-05-22T02:25:51;100751.13;;;16.46;88.63
51359;BME280;37448;51.588;7.248;2023-05-22T02:27:52;100754.63;;;16.46;88.97
51359;BME280;37448;51.588;7.248;2023-05-22T02:29:53;100749.69;;;16.39;88.34
51359;BME280;37448;51.588;7.248;2023-05-22T02:31:54;100746.06;;;16.41;88.71
51359;BME280;37448;51.588;7.248;2023-05-22T02:33:54;100741.50;;;16.45;88.75
51359;BME280;37448;51.588;7.248;2023-05-22T02:35:55;100736.22;;;16.45;88.18
51359;BME280;37448;51.588;7.248;2023-05-22T02:37:57;100734.50;;;16.44;88.47
51359;BME280;37448;51.588;7.248;2023-05-22T02:39:58;100727.53;;;16.43;87.35
51359;BME280;37448;51.588;7.248;2023-05-22T02:41:58;100724.06;;;16.42;88.49
51359;BME280;37448;51.588;7.248;2023-05-22T02:43:59;100724.91;;;16.43;88.39
51359;BME280;37448;51.588;7.248;2023-05-22T02:46:00;100712.72;;;16.40;88.54
51359;BME280;37448;51.588;7.248;2023-05-22T02:48:00;100715.41;;;16.39;88.29
51359;BME280;37448;51.588;7.248;2023-05-22T02:50:02;100704.00;;;16.38;88.32
51359;BME280;37448;51.588;7.248;2023-05-22T02:52:04;100712.94;;;16.35;87.38
51359;BME280;37448;51.588;7.248;2023-05-22T02:54:04;100700.59;;;16.36;88.59
51359;BME280;37448;51.588;7.248;2023-05-22T02:56:08;100701.75;;;16.30;88.14
51359;BME280;37448;51.588;7.248;2023-05-22T02:58:11;100693.75;;;16.32;89.09
51359;BME280;37448;51.588;7.248;2023-05-22T03:00:12;100685.94;;;16.30;89.02
51359;BME280;37448;51.588;7.248;2023-05-22T03:02:13;100691.41;;;16.26;88.39
51359;BME280;37448;51.588;7.248;2023-05-22T03:04:15;100684.47;;;16.23;87.86
51359;BME280;37448;51.588;7.248;2023-05-22T03:06:15;100685.69;;;16.16;86.84
51359;BME280;37448;51.588;7.248;2023-05-22T03:08:16;100685.69;;;16.16;87.73
51359;BME280;37448;51.588;7.248;2023-05-22T03:10:17;100688.47;;;16.13;87.74
51359;BME280;37448;51.588;7.248;2023-05-22T03:12:17;100686.75;;;16.12;88.40
51359;BME280;37448;51.588;7.248;2023-05-22T03:14:18;100681.63;;;16.09;88.46
51359;BME280;37448;51.588;7.248;2023-05-22T03:16:18;100687.81;;;16.07;88.93
51359;BME280;37448;51.588;7.248;2023-05-22T03:18:20;100688.84;;;16.03;88.87
51359;BME280;37448;51.588;7.248;2023-05-22T03:20:21;100690.69;;;16.01;88.15
51359;BME280;37448;51.588;7.248;2023-05-22T03:22:21;100692.47;;;16.01;88.98
51359;BME280;37448;51.588;7.248;2023-05-22T03:24:22;100685.50;;;16.00;88.89
51359;BME280;37448;51.588;7.248;2023-05-22T03:26:22;100690.81;;;15.98;88.80
51359;BME280;37448;51.588;7.248;2023-05-22T03:28:23;100684.78;;;15.96;88.91
51359;BME280;37448;51.588;7.248;2023-05-22T03:30:23;100685.84;;;15.92;88.38
51359;BME280;37448;51.588;7.248;2023-05-22T03:32:37;100677.94;;;15.92;89.20
51359;BME280;37448;51.588;7.248;2023-05-22T03:34:38;100682.41;;;15.90;88.85
51359;BME280;37448;51.588;7.248;2023-05-22T03:36:42;100684.22;;;15.88;89.04
51359;BME280;37448;51.588;7.248;2023-05-22T03:38:46;100684.22;;;15.88;89.26
51359;BME280;37448;51.588;7.248;2023-05-22T03:40:46;100689.63;;;15.85;88.99
51359;BME280;37448;51.588;7.248;2023-05-22T03:42:47;100687.00;;;15.85;89.42
51359;BME280;37448;51.588;7.248;2023-05-22T03:44:48;100686.22;;;15.83;89.53
51359;BME280;37448;51.588;7.248;2023-05-22T03:46:50;100684.59;;;15.78;88.84
51359;BME280;37448;51.588;7.248;2023-05-22T03:48:50;100688.16;;;15.77;89.25
51359;BME280;37448;51.588;7.248;2023-05-22T03:50:51;100687.31;;;15.77;89.30
51359;BME280;37448;51.588;7.248;2023-05-22T03:52:51;100677.63;;;15.77;89.54
51359;BME280;37448;51.588;7.248;2023-05-22T03:54:51;100683.03;;;15.74;89.51
51359;BME280;37448;51.588;7.248;2023-05-22T03:56:52;100677.19;;;15.68;88.65
51359;BME280;37448;51.588;7.248;2023-05-22T03:58:53;100677.91;;;15.71;89.52
51359;BME280;37448;51.588;7.248;2023-05-22T04:00:55;100677.91;;;15.71;89.70
51359;BME280;37448;51.588;7.248;2023-05-22T04:03:00;100675.34;;;15.70;89.48
51359;BME280;37448;51.588;7.248;2023-05-22T04:05:00;100670.13;;;15.68;89.60
51359;BME280;37448;51.588;7.248;2023-05-22T04:07:01;100675.41;;;15.68;89.68
51359;BME280;37448;51.588;7.248;2023-05-22T04:09:01;100682.38;;;15.69;89.99
51359;BME280;37448;51.588;7.248;2023-05-22T04:11:03;100680.66;;;15.68;89.39
51359;BME280;37448;51.588;7.248;2023-05-22T04:13:04;100685.09;;;15.68;89.54
51359;BME280;37448;51.588;7.248;2023-05-22T04:15:05;100678.03;;;15.68;89.53
51359;BME280;37448;51.588;7.248;2023-05-22T04:17:06;100684.88;;;15.72;90.26
51359;BME280;37448;51.588;7.248;2023-05-22T04:19:06;100683.03;;;15.74;90.23
51359;BME280;37448;51.588;7.248;2023-05-22T04:21:08;100683.03;;;15.74;90.47
51359;BME280;37448;51.588;7.248;2023-05-22T04:23:09;100680.38;;;15.74;90.52
51359;BME280;37448;51.588;7.248;2023-05-22T04:25:11;100682.19;;;15.74;89.98
51359;BME280;37448;51.588;7.248;2023-05-22T04:27:11;100680.53;;;15.71;89.33
51359;BME280;37448;51.588;7.248;2023-05-22T04:29:14;100684.59;;;15.78;90.80
51359;BME280;37448;51.588;7.248;2023-05-22T04:31:15;100690.13;;;15.72;89.23
51359;BME280;37448;51.588;7.248;2023-05-22T04:33:16;100685.47;;;15.79;90.48
51359;BME280;37448;51.588;7.248;2023-05-22T04:35:17;100686.22;;;15.83;90.67
51359;BME280;37448;51.588;7.248;2023-05-22T04:37:18;100691.59;;;15.79;89.43
51359;BME280;37448;51.588;7.248;2023-05-22T04:39:19;100687.78;;;15.87;90.83
51359;BME280;37448;51.588;7.248;2023-05-22T04:41:20;100687.72;;;15.88;90.19
51359;BME280;37448;51.588;7.248;2023-05-22T04:43:25;100686.75;;;15.91;90.75
51359;BME280;37448;51.588;7.248;2023-05-22T04:45:26;100683.97;;;15.94;90.81
51359;BME280;37448;51.588;7.248;2023-05-22T04:47:31;100690.03;;;15.96;91.06
51359;BME280;37448;51.588;7.248;2023-05-22T04:49:32;100686.47;;;15.97;91.17
51359;BME280;37448;51.588;7.248;2023-05-22T04:51:33;100678.59;;;15.97;91.01
51359;BME280;37448;51.588;7.248;2023-05-22T04:53:34;100688.97;;;16.00;90.69
51359;BME280;37448;51.588;7.248;2023-05-22T04:55:36;100687.06;;;16.04;91.21
51359;BME280;37448;51.588;7.248;2023-05-22T04:57:37;100688.72;;;16.06;90.74
51359;BME280;37448;51.588;7.248;2023-05-22T04:59:37;100684.31;;;16.07;90.52
51359;BME280;37448;51.588;7.248;2023-05-22T05:01:38;100684.91;;;16.14;91.26
51359;BME280;37448;51.588;7.248;2023-05-22T05:03:39;100683.97;;;16.15;91.47
51359;BME280;37448;51.588;7.248;2023-05-22T05:05:39;100685.53;;;16.19;91.23
51359;BME280;37448;51.588;7.248;2023-05-22T05:07:41;100682.91;;;16.19;90.39
51359;BME280;37448;51.588;7.248;2023-05-22T05:09:42;100684.22;;;16.29;91.64
51359;BME280;37448;51.588;7.248;2023-05-22T05:11:43;100688.47;;;16.32;91.07
51359;BME280;37448;51.588;7.248;2023-05-22T05:13:43;100686.50;;;16.37;90.88
51359;BME280;37448;51.588;7.248;2023-05-22T05:15:43;100692.34;;;16.44;91.49
51359;BME280;37448;51.588;7.248;2023-05-22T05:17:44;100692.19;;;16.47;91.50
51359;BME280;37448;51.588;7.248;2023-05-22T05:19:45;100698.06;;;16.54;91.55
51359;BME280;37448;51.588;7.248;2023-05-22T05:21:48;100690.00;;;16.57;91.02
51359;BME280;37448;51.588;7.248;2023-05-22T05:23:49;100697.84;;;16.58;90.29
51359;BME280;37448;51.588;7.248;2023-05-22T05:25:49;100696.78;;;16.62;90.24
51359;BME280;37448;51.588;7.248;2023-05-22T05:27:50;100701.75;;;16.69;90.56
51359;BME280;37448;51.588;7.248;2023-05-22T05:29:51;100702.41;;;16.74;90.64
51359;BME280;37448;51.588;7.248;2023-05-22T05:31:57;100702.28;;;16.77;89.88
51359;BME280;37448;51.588;7.248;2023-05-22T05:34:06;100701.22;;;16.81;89.73
51359;BME280;37448;51.588;7.248;2023-05-22T05:36:24;100698.91;;;16.92;90.83
51359;BME280;37448;51.588;7.248;2023-05-22T05:38:25;100705.34;;;17.06;91.70
51359;BME280;37448;51.588;7.248;2023-05-22T05:40:26;100701.69;;;17.08;89.06
51359;BME280;37448;51.588;7.248;2023-05-22T05:42:27;100703.91;;;17.18;89.32
51359;BME280;37448;51.588;7.248;2023-05-22T05:44:30;100708.25;;;17.19;87.51
51359;BME280;37448;51.588;7.248;2023-05-22T05:46:32;100710.22;;;17.33;89.83
51359;BME280;37448;51.588;7.248;2023-05-22T05:48:33;100709.78;;;17.42;90.56
51359;BME280;37448;51.588;7.248;2023-05-22T05:50:33;100712.25;;;17.45;89.01
51359;BME280;37448;51.588;7.248;2023-05-22T05:52:33;100714.53;;;17.53;89.68
51359;BME280;37448;51.588;7.248;2023-05-22T05:54:39;100706.22;;;17.61;89.89
51359;BME280;37448;51.588;7.248;2023-05-22T05:56:47;100715.06;;;17.60;86.49
51359;BME280;37448;51.588;7.248;2023-05-22T05:58:47;100716.47;;;17.67;88.04
51359;BME280;37448;51.588;7.248;2023-05-22T06:01:26;100713.06;;;17.83;89.32
51359;BME280;37448;51.588;7.248;2023-05-22T06:03:27;100722.06;;;17.96;89.83
51359;BME280;37448;51.588;7.248;2023-05-22T06:05:55;100716.19;;;18.08;84.60
51359;BME280;37448;51.588;7.248;2023-05-22T06:08:16;100722.38;;;18.25;88.78
51359;BME280;37448;51.588;7.248;2023-05-22T06:10:19;100724.63;;;18.33;88.66
51359;BME280;37448;51.588;7.248;2023-05-22T06:12:34;100727.53;;;18.44;88.21
51359;BME280;37448;51.588;7.248;2023-05-22T06:14:34;100725.09;;;18.57;89.45
51359;BME280;37448;51.588;7.248;2023-05-22T06:16:34;100720.06;;;18.69;89.90
51359;BME280;37448;51.588;7.248;2023-05-22T06:18:35;100721.94;;;18.67;88.68
51359;BME280;37448;51.588;7.248;2023-05-22T06:20:36;100721.81;;;18.70;88.84
51359;BME280;37448;51.588;7.248;2023-05-22T06:22:39;100724.34;;;18.71;87.07
51359;BME280;37448;51.588;7.248;2023-05-22T06:24:39;100723.00;;;18.80;88.70
51359;BME280;37448;51.588;7.248;2023-05-22T06:26:45;100721.81;;;18.86;86.10
51359;BME280;37448;51.588;7.248;2023-05-22T06:28:46;100727.66;;;19.08;88.89
51359;BME280;37448;51.588;7.248;2023-05-22T06:30:46;100716.97;;;19.10;81.70
51359;BME280;37448;51.588;7.248;2023-05-22T06:32:50;100717.44;;;19.33;84.84
51359;BME280;37448;51.588;7.248;2023-05-22T06:34:52;100723.97;;;19.58;86.60
51359;BME280;37448;51.588;7.248;2023-05-22T06:36:54;100719.13;;;19.80;87.51
51359;BME280;37448;51.588;7.248;2023-05-22T06:38:58;100725.06;;;20.00;86.21
51359;BME280;37448;51.588;7.248;2023-05-22T06:41:24;100726.03;;;20.28;86.75
51359;BME280;37448;51.588;7.248;2023-05-22T06:43:25;100729.28;;;20.48;86.54
51359;BME280;37448;51.588;7.248;2023-05-22T06:45:34;100731.53;;;20.54;81.92
51359;BME280;37448;51.588;7.248;2023-05-22T06:47:58;100735.69;;;20.73;85.39
51359;BME280;37448;51.588;7.248;2023-05-22T06:49:59;100728.88;;;20.83;85.16
51359;BME280;37448;51.588;7.248;2023-05-22T06:52:00;100733.63;;;20.92;85.21
51359;BME280;37448;51.588;7.248;2023-05-22T06:54:00;100740.16;;;20.87;82.13
51359;BME280;37448;51.588;7.248;2023-05-22T06:56:05;100737.44;;;20.88;82.18
51359;BME280;37448;51.588;7.248;2023-05-22T06:58:23;100738.53;;;20.99;83.75
51359;BME280;37448;51.588;7.248;2023-05-22T07:00:24;100734.72;;;21.03;75.48
51359;BME280;37448;51.588;7.248;2023-05-22T07:02:43;100735.69;;;21.29;74.66
51359;BME280;37448;51.588;7.248;2023-05-22T07:05:10;100740.53;;;21.77;80.68
51359;BME280;37448;51.588;7.248;2023-05-22T07:07:25;100742.09;;;22.07;80.07
51359;BME280;37448;51.588;7.248;2023-05-22T07:09:26;100739.09;;;22.38;80.57
51359;BME280;37448;51.588;7.248;2023-05-22T07:11:27;100743.13;;;22.70;80.60
51359;BME280;37448;51.588;7.248;2023-05-22T07:13:27;100743.75;;;22.73;75.81
51359;BME280;37448;51.588;7.248;2023-05-22T07:15:31;100744.09;;;23.06;77.96
51359;BME280;37448;51.588;7.248;2023-05-22T07:17:34;100738.19;;;22.89;70.42
51359;BME280;37448;51.588;7.248;2023-05-22T07:19:35;100749.16;;;23.22;76.24
51359;BME280;37448;51.588;7.248;2023-05-22T07:21:37;100738.09;;;23.53;75.11
51359;BME280;37448;51.588;7.248;2023-05-22T07:23:38;100739.53;;;23.57;73.54
51359;BME280;37448;51.588;7.248;2023-05-22T07:25:39;100748.59;;;23.90;73.67
51359;BME280;37448;51.588;7.248;2023-05-22T07:27:39;100748.09;;;24.32;75.23
51359;BME280;37448;51.588;7.248;2023-05-22T07:29:40;100747.03;;;24.57;73.08
51359;BME280;37448;51.588;7.248;2023-05-22T07:31:42;100748.09;;;24.55;68.78
51359;BME280;37448;51.588;7.248;2023-05-22T07:33:42;100749.78;;;24.56;67.39
51359;BME280;37448;51.588;7.248;2023-05-22T07:35:43;100754.31;;;24.55;62.73
51359;BME280;37448;51.588;7.248;2023-05-22T07:37:45;100752.84;;;24.97;70.37
51359;BME280;37448;51.588;7.248;2023-05-22T07:39:45;100744.78;;;25.08;65.17
51359;BME280;37448;51.588;7.248;2023-05-22T07:41:47;100744.63;;;25.21;62.15
51359;BME280;37448;51.588;7.248;2023-05-22T07:43:52;100736.03;;;25.17;67.53
51359;BME280;37448;51.588;7.248;2023-05-22T07:45:56;100743.88;;;25.30;66.76
51359;BME280;37448;51.588;7.248;2023-05-22T07:47:59;100742.06;;;25.31;63.37
51359;BME280;37448;51.588;7.248;2023-05-22T07:50:01;100741.91;;;24.88;60.85
51359;BME280;37448;51.588;7.248;2023-05-22T07:52:04;100744.94;;;24.72;59.78
51359;BME280;37448;51.588;7.248;2023-05-22T07:54:04;100737.81;;;24.84;66.08
51359;BME280;37448;51.588;7.248;2023-05-22T07:56:05;100751.38;;;24.70;64.96
51359;BME280;37448;51.588;7.248;2023-05-22T07:58:06;100749.44;;;24.72;63.79
51359;BME280;37448;51.588;7.248;2023-05-22T08:00:11;100753.56;;;24.87;64.98
51359;BME280;37448;51.588;7.248;2023-05-22T08:02:12;100743.34;;;25.04;62.67
51359;BME280;37448;51.588;7.248;2023-05-22T08:04:13;100753.53;;;25.10;58.02
51359;BME280;37448;51.588;7.248;2023-05-22T08:06:13;100753.88;;;25.17;63.43
51359;BME280;37448;51.588;7.248;2023-05-22T08:08:15;100749.00;;;25.33;59.09
51359;BME280;37448;51.588;7.248;2023-05-22T08:10:17;100742.00;;;25.42;64.09
51359;BME280;37448;51.588;7.248;2023-05-22T08:12:17;100747.34;;;25.54;61.39
51359;BME280;37448;51.588;7.248;2023-05-22T08:14:20;100752.13;;;25.71;63.01
51359;BME280;37448;51.588;7.248;2023-05-22T08:16:21;100747.59;;;25.83;61.41
51359;BME280;37448;51.588;7.248;2023-05-22T08:18:21;100750.69;;;26.09;61.57
51359;BME280;37448;51.588;7.248;2023-05-22T08:20:22;100749.56;;;25.91;54.29
51359;BME280;37448;51.588;7.248;2023-05-22T08:22:22;100748.44;;;26.15;61.26
51359;BME280;37448;51.588;7.248;2023-05-22T08:24:25;100749.78;;;26.42;58.88
51359;BME280;37448;51.588;7.248;2023-05-22T08:26:28;100742.97;;;26.37;56.56
51359;BME280;37448;51.588;7.248;2023-05-22T08:28:28;100750.28;;;26.35;56.35
51359;BME280;37448;51.588;7.248;2023-05-22T08:30:29;100748.41;;;26.57;58.88
51359;BME280;37448;51.588;7.248;2023-05-22T08:32:30;100755.25;;;26.81;55.95
51359;BME280;37448;51.588;7.248;2023-05-22T08:34:30;100756.34;;;26.69;54.20
51359;BME280;37448;51.588;7.248;2023-05-22T08:36:32;100755.72;;;26.86;57.34
51359;BME280;37448;51.588;7.248;2023-05-22T08:38:35;100754.91;;;26.96;52.90
51359;BME280;37448;51.588;7.248;2023-05-22T08:40:37;100754.09;;;26.74;51.75
51359;BME280;37448;51.588;7.248;2023-05-22T08:42:38;100751.16;;;26.77;53.93
51359;BME280;37448;51.588;7.248;2023-05-22T08:44:38;100755.53;;;26.78;53.62
51359;BME280;37448;51.588;7.248;2023-05-22T08:46:39;100752.69;;;26.70;51.43
51359;BME280;37448;51.588;7.248;2023-05-22T08:48:43;100753.28;;;26.83;52.34
51359;BME280;37448;51.588;7.248;2023-05-22T08:50:46;100760.31;;;26.84;53.38
51359;BME280;37448;51.588;7.248;2023-05-22T08:52:50;100756.56;;;26.87;52.84
51359;BME280;37448;51.588;7.248;2023-05-22T08:54:53;100755.63;;;26.98;51.68
51359;BME280;37448;51.588;7.248;2023-05-22T08:56:55;100750.56;;;27.14;52.82
51359;BME280;37448;51.588;7.248;2023-05-22T08:58:56;100755.09;;;27.23;53.43
51359;BME280;37448;51.588;7.248;2023-05-22T09:00:57;100744.66;;;27.30;51.63
51359;BME280;37448;51.588;7.248;2023-05-22T09:02:58;100756.06;;;27.22;51.79
51359;BME280;37448;51.588;7.248;2023-05-22T09:04:59;100755.94;;;27.34;53.60
51359;BME280;37448;51.588;7.248;2023-05-22T09:07:01;100753.72;;;27.59;52.12
51359;BME280;37448;51.588;7.248;2023-05-22T09:09:04;100752.00;;;27.58;50.12
51359;BME280;37448;51.588;7.248;2023-05-22T09:11:05;100749.03;;;27.71;51.15
51359;BME280;37448;51.588;7.248;2023-05-22T09:13:06;100745.47;;;28.10;49.74
51359;BME280;37448;51.588;7.248;2023-05-22T09:15:08;100744.50;;;27.91;50.52
51359;BME280;37448;51.588;7.248;2023-05-22T09:17:10;100740.38;;;28.06;50.55
51359;BME280;37448;51.588;7.248;2023-05-22T09:19:14;100738.94;;;28.22;49.31
51359;BME280;37448;51.588;7.248;2023-05-22T09:21:14;100749.34;;;28.35;48.31
51359;BME280;37448;51.588;7.248;2023-05-22T09:23:15;100742.91;;;28.18;47.21
51359;BME280;37448;51.588;7.248;2023-05-22T09:25:20;100745.94;;;28.43;49.90
51359;BME280;37448;51.588;7.248;2023-05-22T09:27:22;100740.66;;;28.51;47.27
51359;BME280;37448;51.588;7.248;2023-05-22T09:29:22;100736.88;;;28.44;46.49
51359;BME280;37448;51.588;7.248;2023-05-22T09:31:22;100741.72;;;28.30;47.17
51359;BME280;37448;51.588;7.248;2023-05-22T09:33:23;100747.16;;;28.11;45.23
51359;BME280;37448;51.588;7.248;2023-05-22T09:35:24;100743.75;;;28.18;45.31
51359;BME280;37448;51.588;7.248;2023-05-22T09:37:32;100746.63;;;27.97;45.09
51359;BME280;37448;51.588;7.248;2023-05-22T09:39:40;100745.88;;;28.15;46.69
51359;BME280;37448;51.588;7.248;2023-05-22T09:41:43;100743.31;;;28.23;45.02
51359;BME280;37448;51.588;7.248;2023-05-22T09:43:48;100739.50;;;28.26;46.24
51359;BME280;37448;51.588;7.248;2023-05-22T09:46:00;100741.91;;;28.29;44.84
51359;BME280;37448;51.588;7.248;2023-05-22T09:48:04;100742.56;;;28.41;45.61
51359;BME280;37448;51.588;7.248;2023-05-22T09:50:05;100737.81;;;28.25;44.64
51359;BME280;37448;51.588;7.248;2023-05-22T09:52:07;100737.78;;;28.34;46.16
51359;BME280;37448;51.588;7.248;2023-05-22T09:54:09;100740.47;;;28.62;46.55
51359;BME280;37448;51.588;7.248;2023-05-22T09:56:12;100737.00;;;28.80;47.06
51359;BME280;37448;51.588;7.248;2023-05-22T09:58:17;100735.13;;;28.90;44.78
51359;BME280;37448;51.588;7.248;2023-05-22T10:00:18;100743.78;;;28.84;45.19
51359;BME280;37448;51.588;7.248;2023-05-22T10:02:23;100744.56;;;28.94;46.12
51359;BME280;37448;51.588;7.248;2023-05-22T10:04:26;100735.53;;;29.32;47.33
51359;BME280;37448;51.588;7.248;2023-05-22T10:06:27;100731.75;;;29.25;45.44
51359;BME280;37448;51.588;7.248;2023-05-22T10:08:30;100731.28;;;28.93;48.92
51359;BME280;37448;51.588;7.248;2023-05-22T10:10:32;100733.66;;;28.68;46.13
51359;BME280;37448;51.588;7.248;2023-05-22T10:12:40;100736.00;;;28.81;45.47
51359;BME280;37448;51.588;7.248;2023-05-22T10:14:42;100736.06;;;28.33;45.31
51359;BME280;37448;51.588;7.248;2023-05-22T10:16:43;100732.63;;;27.93;46.24
51359;BME280;37448;51.588;7.248;2023-05-22T10:18:44;100743.22;;;27.95;47.08
51359;BME280;37448;51.588;7.248;2023-05-22T10:20:45;100739.97;;;28.01;47.34
51359;BME280;37448;51.588;7.248;2023-05-22T10:22:46;100738.69;;;28.05;48.98
51359;BME280;37448;51.588;7.248;2023-05-22T10:24:48;100736.97;;;28.52;47.91
51359;BME280;37448;51.588;7.248;2023-05-22T10:26:52;100743.59;;;28.58;47.84
51359;BME280;37448;51.588;7.248;2023-05-22T10:28:59;100739.56;;;28.82;46.17
51359;BME280;37448;51.588;7.248;2023-05-22T10:31:17;100729.22;;;29.05;46.38
51359;BME280;37448;51.588;7.248;2023-05-22T10:33:53;100731.81;;;28.97;45.96
51359;BME280;37448;51.588;7.248;2023-05-22T10:36:04;100731.63;;;28.80;46.25
51359;BME280;37448;51.588;7.248;2023-05-22T10:40:39;100731.91;;;28.01;48.41
51359;BME280;37448;51.588;7.248;2023-05-22T10:42:42;100729.91;;;28.23;48.74
51359;BME280;37448;51.588;7.248;2023-05-22T10:44:42;100725.28;;;27.96;47.58
51359;BME280;37448;51.588;7.248;2023-05-22T10:46:49;100723.19;;;27.79;47.73
51359;BME280;37448;51.588;7.248;2023-05-22T10:48:52;100718.03;;;27.58;49.90